Time;durP1;ratioP1;P1;durP2;ratioP2;P2;SDS_P1;SDS_P2;PMS_P1;PMS_P2;Temp;Humidity;BMP_temperature;BMP_pressure;BME280_temperature;BME280_humidity;BME280_pressure;Samples;Min_cycle;Max_cycle;Signal;HPM_P1;HPM_P2
2021/05/18 00:00:23;;;;;;;1.57;1.27;;;;;;;;;;5023577;28;20953;-70
2021/05/18 00:02:51;;;;;;;1.23;1.10;;;;;;;;;;5024187;28;20523;-76
2021/05/18 00:05:18;;;;;;;1.53;1.10;;;;;;;;;;5013312;28;20980;-74
2021/05/18 00:07:58;;;;;;;1.97;1.40;;;;;;;;;;5024055;28;21305;-73
2021/05/18 00:13:13;;;;;;;1.57;1.13;;;;;;;;;;5029549;28;20447;-71
2021/05/18 00:15:39;;;;;;;2.90;1.33;;;;;;;;;;5028756;28;20483;-71
2021/05/18 00:18:06;;;;;;;1.63;1.03;;;;;;;;;;5029990;28;20447;-72
2021/05/18 00:20:37;;;;;;;1.47;0.93;;;;;;;;;;5023261;28;21016;-74
2021/05/18 00:23:06;;;;;;;2.00;1.20;;;;;;;;;;5025708;28;20997;-75
2021/05/18 00:25:33;;;;;;;3.87;1.13;;;;;;;;;;5016755;28;20809;-74
2021/05/18 00:28:00;;;;;;;2.83;1.20;;;;;;;;;;5032691;28;20440;-72
2021/05/18 00:30:27;;;;;;;3.27;1.23;;;;;;;;;;5048422;28;20458;-74
2021/05/18 00:32:54;;;;;;;2.23;1.40;;;;;;;;;;5022488;28;20498;-76
2021/05/18 00:35:21;;;;;;;1.97;1.10;;;;;;;;;;5029880;28;20464;-73
2021/05/18 00:37:48;;;;;;;4.63;1.20;;;;;;;;;;5033351;28;20443;-74
2021/05/18 00:40:17;;;;;;;2.73;1.40;;;;;;;;;;5019652;28;20448;-68
2021/05/18 00:42:46;;;;;;;2.23;1.37;;;;;;;;;;5033644;28;20516;-75
2021/05/18 00:45:13;;;;;;;1.43;0.97;;;;;;;;;;5032121;28;20462;-74
2021/05/18 00:47:40;;;;;;;3.20;1.20;;;;;;;;;;5027382;28;20535;-78
2021/05/18 00:50:07;;;;;;;1.50;1.20;;;;;;;;;;5026837;28;20527;-74
2021/05/18 00:52:35;;;;;;;1.40;1.10;;;;;;;;;;5032938;28;20757;-73
2021/05/18 00:55:08;;;;;;;2.53;1.30;;;;;;;;;;5021084;28;20844;-75
2021/05/18 01:00:21;;;;;;;2.83;1.40;;;;;;;;;;5033346;28;20440;-71
2021/05/18 01:02:48;;;;;;;2.93;1.17;;;;;;;;;;5032217;28;20432;-73
2021/05/18 01:05:20;;;;;;;2.40;1.40;;;;;;;;;;5026512;28;20476;-70
2021/05/18 01:07:48;;;;;;;1.37;1.20;;;;;;;;;;5026883;28;20451;-68
2021/05/18 01:10:15;;;;;;;2.90;1.60;;;;;;;;;;5033417;28;20435;-74
2021/05/18 01:12:42;;;;;;;3.80;1.30;;;;;;;;;;5033221;28;20490;-73
2021/05/18 01:15:11;;;;;;;1.97;1.30;;;;;;;;;;5018959;28;20923;-73
2021/05/18 01:17:38;;;;;;;1.53;1.40;;;;;;;;;;5033143;28;20447;-69
2021/05/18 01:20:08;;;;;;;2.03;1.50;;;;;;;;;;5044461;28;20836;-69
2021/05/18 01:22:35;;;;;;;1.97;1.30;;;;;;;;;;5018183;28;20472;-71
2021/05/18 01:25:03;;;;;;;3.87;1.53;;;;;;;;;;5044137;28;20919;-72
2021/05/18 01:27:31;;;;;;;2.20;1.90;;;;;;;;;;5031012;28;20456;-72
2021/05/18 01:29:57;;;;;;;3.87;1.40;;;;;;;;;;5014990;28;20444;-69
2021/05/18 01:32:26;;;;;;;3.23;1.57;;;;;;;;;;5030996;28;20474;-72
2021/05/18 01:34:53;;;;;;;3.90;1.90;;;;;;;;;;5031304;28;20567;-72
2021/05/18 01:37:20;;;;;;;4.63;2.00;;;;;;;;;;5032275;28;20871;-70
2021/05/18 01:45:08;;;;;;;1.67;1.50;;;;;;;;;;5032575;28;20486;-74
2021/05/18 01:47:35;;;;;;;2.87;1.83;;;;;;;;;;5026703;28;20532;-74
2021/05/18 01:50:03;;;;;;;2.67;1.90;;;;;;;;;;5011835;28;20452;-74
2021/05/18 01:52:30;;;;;;;2.63;1.67;;;;;;;;;;5045455;28;20447;-75
2021/05/18 01:55:02;;;;;;;7.03;1.90;;;;;;;;;;5032077;28;20439;-78
2021/05/18 01:57:30;;;;;;;4.37;2.17;;;;;;;;;;5033891;28;20432;-73
2021/05/18 02:00:15;;;;;;;3.30;1.77;;;;;;;;;;5053928;28;20511;-71
2021/05/18 02:02:50;;;;;;;2.70;1.70;;;;;;;;;;5017227;28;20496;-73
2021/05/18 02:05:24;;;;;;;2.37;1.67;;;;;;;;;;5030717;28;20456;-72
2021/05/18 02:08:24;;;;;;;9.30;1.80;;;;;;;;;;5030568;28;20444;-73
2021/05/18 02:10:56;;;;;;;2.53;1.90;;;;;;;;;;5032359;28;20864;-71
2021/05/18 02:13:24;;;;;;;3.30;1.80;;;;;;;;;;5030299;28;20444;-72
2021/05/18 02:16:01;;;;;;;2.40;2.20;;;;;;;;;;5031042;28;20439;-75
2021/05/18 02:18:54;;;;;;;3.40;2.17;;;;;;;;;;5030341;28;20471;-74
2021/05/18 02:26:37;;;;;;;2.63;2.43;;;;;;;;;;5030176;28;20458;-69
2021/05/18 02:29:05;;;;;;;3.93;2.30;;;;;;;;;;5017541;28;20440;-71
2021/05/18 02:31:33;;;;;;;2.80;2.37;;;;;;;;;;5032164;28;20480;-71
2021/05/18 02:34:20;;;;;;;2.47;2.27;;;;;;;;;;5014836;28;20526;-72
2021/05/18 02:36:47;;;;;;;3.90;2.73;;;;;;;;;;5011746;28;20947;-76
2021/05/18 02:39:15;;;;;;;2.80;2.47;;;;;;;;;;5024133;28;20444;-72
2021/05/18 02:41:42;;;;;;;4.03;2.53;;;;;;;;;;5040003;28;20448;-71
2021/05/18 02:44:17;;;;;;;4.13;2.40;;;;;;;;;;5029261;28;20476;-74
2021/05/18 02:49:37;;;;;;;5.00;3.50;;;;;;;;;;5029719;28;20443;-70
2021/05/18 02:52:04;;;;;;;3.73;3.30;;;;;;;;;;5031423;28;20512;-70
2021/05/18 02:54:34;;;;;;;3.70;3.27;;;;;;;;;;5029679;28;20533;-71
2021/05/18 02:57:09;;;;;;;4.40;3.00;;;;;;;;;;5030453;28;20449;-75
2021/05/18 02:59:36;;;;;;;4.10;3.60;;;;;;;;;;5018212;28;20468;-73
2021/05/18 03:02:03;;;;;;;3.30;2.80;;;;;;;;;;5019496;28;20433;-71
2021/05/18 03:04:30;;;;;;;3.60;3.30;;;;;;;;;;5012768;28;20525;-69
2021/05/18 03:07:00;;;;;;;4.57;3.50;;;;;;;;;;5019207;28;20435;-74
2021/05/18 03:09:27;;;;;;;4.73;3.80;;;;;;;;;;5031202;28;20538;-76
2021/05/18 03:11:54;;;;;;;4.10;3.80;;;;;;;;;;5017732;28;20481;-68
2021/05/18 03:14:21;;;;;;;4.60;4.03;;;;;;;;;;5030958;28;20440;-76
2021/05/18 03:16:49;;;;;;;4.93;4.43;;;;;;;;;;5029261;28;20529;-72
2021/05/18 03:19:16;;;;;;;5.07;4.33;;;;;;;;;;5020200;28;20441;-71
2021/05/18 03:21:43;;;;;;;6.37;4.53;;;;;;;;;;5027609;28;20448;-73
2021/05/18 03:24:12;;;;;;;5.97;5.17;;;;;;;;;;5030502;28;20486;-71
2021/05/18 03:26:50;;;;;;;5.87;4.67;;;;;;;;;;5030815;28;20451;-74
2021/05/18 03:34:34;;;;;;;5.40;4.73;;;;;;;;;;5031615;28;20513;-72
2021/05/18 03:37:06;;;;;;;6.57;5.13;;;;;;;;;;5030432;28;20440;-69
2021/05/18 03:39:34;;;;;;;5.70;5.07;;;;;;;;;;5029720;28;20440;-75
2021/05/18 03:42:08;;;;;;;5.30;4.80;;;;;;;;;;5027561;28;20446;-74
2021/05/18 04:03:58;;;;;;;12.10;5.97;;;;;;;;;;5029578;28;20522;-72
2021/05/18 04:17:16;;;;;;;5.43;4.73;;;;;;;;;;5030246;28;20440;-75
2021/05/18 04:48:16;;;;;;;3.00;2.70;;;;;;;;;;5025576;28;20453;-70
2021/05/18 04:52:15;;;;;;;3.87;2.30;;;;;;;;;;5029402;28;20453;-73
2021/05/18 05:00:27;;;;;;;2.83;2.30;;;;;;;;;;5024956;28;20472;-71
2021/05/18 05:15:32;;;;;;;3.37;2.10;;;;;;;;;;5035305;28;20451;-72
2021/05/18 05:17:58;;;;;;;99.03;71.70;;;;;;;;;;5034901;28;20975;-72
2021/05/18 05:20:25;;;;;;;42.77;36.73;;;;;;;;;;5031283;28;20432;-74
2021/05/18 05:22:52;;;;;;;6.00;4.57;;;;;;;;;;5020626;28;20479;-75
2021/05/18 05:25:19;;;;;;;2.50;2.20;;;;;;;;;;5017262;28;21095;-71
2021/05/18 05:27:45;;;;;;;3.40;2.00;;;;;;;;;;5032823;28;20446;-73
2021/05/18 05:30:12;;;;;;;3.17;1.77;;;;;;;;;;5032497;28;20546;-70
2021/05/18 05:32:39;;;;;;;2.73;2.10;;;;;;;;;;5032758;28;20435;-70
2021/05/18 05:35:06;;;;;;;5.20;2.00;;;;;;;;;;5032118;28;20447;-72
2021/05/18 05:37:36;;;;;;;3.63;2.17;;;;;;;;;;5032202;28;20448;-71
2021/05/18 05:40:03;;;;;;;5.87;2.50;;;;;;;;;;5032820;28;20438;-70
2021/05/18 05:42:30;;;;;;;6.43;2.63;;;;;;;;;;5026260;28;20483;-69
2021/05/18 05:44:57;;;;;;;7.53;2.03;;;;;;;;;;5024969;28;20472;-71
2021/05/18 05:47:24;;;;;;;18.70;12.37;;;;;;;;;;5027918;28;20470;-69
2021/05/18 05:49:53;;;;;;;39.83;35.17;;;;;;;;;;5022651;28;20446;-71
2021/05/18 05:52:22;;;;;;;3.60;2.40;;;;;;;;;;5031997;28;20539;-72
2021/05/18 05:54:49;;;;;;;7.17;2.63;;;;;;;;;;5023019;28;20886;-70
2021/05/18 05:57:18;;;;;;;10.17;2.33;;;;;;;;;;5030109;28;20475;-70
2021/05/18 05:59:46;;;;;;;5.10;1.93;;;;;;;;;;5032261;28;21357;-73
2021/05/18 06:02:13;;;;;;;6.57;1.70;;;;;;;;;;5031786;28;20987;-73
2021/05/18 06:04:39;;;;;;;2.47;1.50;;;;;;;;;;5015265;28;21028;-74
2021/05/18 06:07:06;;;;;;;4.90;1.80;;;;;;;;;;5044048;28;20445;-72
2021/05/18 06:09:35;;;;;;;7.67;1.43;;;;;;;;;;5058593;28;20804;-75
2021/05/18 06:14:38;;;;;;;3.33;1.20;;;;;;;;;;5025697;28;20933;-75
2021/05/18 06:47:31;;;;;;;2.33;1.10;;;;;;;;;;5028108;28;20526;-68
2021/05/18 06:52:38;;;;;;;1.23;1.00;;;;;;;;;;5029526;28;20526;-69
2021/05/18 06:55:09;;;;;;;3.83;1.17;;;;;;;;;;5030740;28;20443;-70
2021/05/18 06:57:44;;;;;;;2.33;0.77;;;;;;;;;;5029957;28;20440;-68
2021/05/18 07:00:13;;;;;;;3.97;0.90;;;;;;;;;;5030430;28;20448;-67
2021/05/18 07:02:43;;;;;;;2.90;1.00;;;;;;;;;;5029330;28;21031;-69
2021/05/18 07:05:27;;;;;;;1.60;0.90;;;;;;;;;;5029189;28;20479;-67
2021/05/18 07:10:41;;;;;;;1.63;0.83;;;;;;;;;;5025922;28;20443;-66
2021/05/18 07:13:07;;;;;;;4.83;0.90;;;;;;;;;;5026236;28;20516;-70
2021/05/18 07:15:34;;;;;;;24.43;21.87;;;;;;;;;;5013406;28;21022;-71
2021/05/18 07:18:01;;;;;;;8.27;3.33;;;;;;;;;;5027341;28;20440;-68
2021/05/18 07:20:29;;;;;;;1.77;1.00;;;;;;;;;;5029522;28;20428;-70
2021/05/18 07:23:01;;;;;;;0.77;0.73;;;;;;;;;;5023354;28;20876;-67
2021/05/18 07:25:27;;;;;;;4.73;0.97;;;;;;;;;;5030324;28;21008;-67
2021/05/18 07:27:54;;;;;;;1.53;0.70;;;;;;;;;;5023211;28;20498;-71
2021/05/18 07:30:22;;;;;;;1.97;0.83;;;;;;;;;;5030881;28;20452;-69
2021/05/18 07:32:49;;;;;;;3.90;0.70;;;;;;;;;;5030548;28;20512;-72
2021/05/18 07:35:16;;;;;;;3.07;1.20;;;;;;;;;;5029827;28;20432;-68
2021/05/18 07:37:43;;;;;;;2.43;0.63;;;;;;;;;;5021294;28;20449;-68
2021/05/18 07:40:10;;;;;;;2.20;0.90;;;;;;;;;;5024400;28;20440;-67
2021/05/18 07:42:37;;;;;;;0.73;0.60;;;;;;;;;;5024119;28;20965;-71
2021/05/18 07:45:03;;;;;;;2.47;0.97;;;;;;;;;;5030394;28;20479;-67
2021/05/18 07:47:36;;;;;;;1.30;0.80;;;;;;;;;;5023673;28;20446;-67
2021/05/18 07:50:07;;;;;;;2.37;0.60;;;;;;;;;;5030379;28;20455;-69
2021/05/18 08:06:26;;;;;;;0.70;0.57;;;;;;;;;;5016431;28;20487;-69
2021/05/18 08:08:53;;;;;;;3.70;0.80;;;;;;;;;;5029581;28;20440;-74
2021/05/18 08:11:19;;;;;;;1.87;1.00;;;;;;;;;;5016383;28;20440;-68
2021/05/18 08:13:54;;;;;;;1.63;0.80;;;;;;;;;;5030818;28;20468;-68
2021/05/18 08:19:11;;;;;;;2.63;0.90;;;;;;;;;;5010358;28;20441;-73
2021/05/18 09:49:09;;;;;;;1.90;0.87;;;;;;;;;;5020736;28;20483;-69
2021/05/18 10:25:17;;;;;;;0.90;0.50;;;;;;;;;;5030302;28;21000;-72
2021/05/18 10:35:29;;;;;;;1.60;0.70;;;;;;;;;;5031516;28;20448;-75
2021/05/18 10:38:01;;;;;;;5.80;0.70;;;;;;;;;;5022652;28;20491;-73
2021/05/18 10:40:31;;;;;;;2.50;0.83;;;;;;;;;;5027909;28;20503;-74
2021/05/18 10:43:17;;;;;;;3.20;0.80;;;;;;;;;;5024948;28;20444;-70
2021/05/18 10:45:47;;;;;;;2.10;0.50;;;;;;;;;;5029363;28;21012;-78
2021/05/18 10:48:14;;;;;;;27.33;24.47;;;;;;;;;;5014475;28;20911;-74
2021/05/18 10:50:41;;;;;;;1.37;0.97;;;;;;;;;;5030265;28;20440;-75
2021/05/18 10:53:20;;;;;;;7.97;1.00;;;;;;;;;;5022303;28;20954;-75
2021/05/18 10:56:07;;;;;;;1.30;0.47;;;;;;;;;;5031087;28;20440;-75
2021/05/18 10:58:34;;;;;;;4.63;0.90;;;;;;;;;;5025603;28;20974;-76
2021/05/18 11:01:02;;;;;;;3.07;0.70;;;;;;;;;;5030406;28;20972;-75
2021/05/18 11:03:29;;;;;;;4.10;1.30;;;;;;;;;;5031311;28;20474;-75
2021/05/18 11:06:03;;;;;;;5.00;0.63;;;;;;;;;;5018208;28;20534;-77
2021/05/18 11:08:31;;;;;;;3.70;0.90;;;;;;;;;;5009976;28;20443;-76
2021/05/18 11:10:57;;;;;;;0.83;0.60;;;;;;;;;;5028600;28;20450;-71
2021/05/18 11:13:24;;;;;;;2.27;0.90;;;;;;;;;;5029944;28;20546;-75
2021/05/18 11:15:51;;;;;;;0.70;0.60;;;;;;;;;;5018528;28;20540;-76
2021/05/18 11:18:18;;;;;;;1.27;0.60;;;;;;;;;;5010618;28;20459;-74
2021/05/18 11:23:29;;;;;;;1.57;0.50;;;;;;;;;;5026868;28;20192;-73
2021/05/18 11:26:07;;;;;;;1.80;0.70;;;;;;;;;;5020032;28;20217;-72
2021/05/18 11:28:37;;;;;;;4.70;1.17;;;;;;;;;;5029865;28;20236;-72
2021/05/18 11:31:14;;;;;;;3.10;0.63;;;;;;;;;;5030583;28;20957;-72
2021/05/18 11:33:42;;;;;;;2.83;0.93;;;;;;;;;;5028080;28;20221;-71
2021/05/18 11:36:11;;;;;;;4.17;0.53;;;;;;;;;;5035268;28;20478;-74
2021/05/18 11:38:47;;;;;;;0.97;0.60;;;;;;;;;;5015766;28;20440;-74
2021/05/18 11:41:27;;;;;;;3.47;0.77;;;;;;;;;;5030507;28;20532;-74
2021/05/18 11:43:56;;;;;;;2.63;0.50;;;;;;;;;;5015887;28;20973;-75
2021/05/18 11:46:24;;;;;;;1.77;0.90;;;;;;;;;;5020250;28;20492;-74
2021/05/18 11:49:00;;;;;;;1.80;0.70;;;;;;;;;;5026000;28;20522;-75
2021/05/18 11:51:32;;;;;;;4.10;1.17;;;;;;;;;;5030064;28;20447;-74
2021/05/18 11:54:20;;;;;;;1.43;0.60;;;;;;;;;;5029617;28;20232;-75
2021/05/18 11:56:48;;;;;;;0.70;0.50;;;;;;;;;;5030044;28;20440;-74
2021/05/18 11:59:19;;;;;;;2.00;0.67;;;;;;;;;;5028969;28;20444;-73
2021/05/18 12:01:50;;;;;;;1.53;0.60;;;;;;;;;;5044163;28;20447;-72
2021/05/18 12:04:18;;;;;;;1.53;0.50;;;;;;;;;;5027171;28;20612;-76
2021/05/18 12:06:54;;;;;;;1.40;0.57;;;;;;;;;;5015608;28;20213;-73
2021/05/18 12:09:21;;;;;;;1.90;0.37;;;;;;;;;;5029547;28;20192;-73
2021/05/18 12:11:59;;;;;;;1.10;0.60;;;;;;;;;;5030042;28;20641;-73
2021/05/18 12:14:26;;;;;;;3.27;0.70;;;;;;;;;;5029227;28;20729;-74
2021/05/18 12:16:54;;;;;;;1.60;0.60;;;;;;;;;;5010840;28;20251;-73
2021/05/18 12:19:21;;;;;;;5.77;0.60;;;;;;;;;;5021282;28;20627;-72
2021/05/18 12:21:50;;;;;;;2.23;0.70;;;;;;;;;;5029874;28;20617;-74
2021/05/18 12:24:18;;;;;;;6.60;0.87;;;;;;;;;;5034109;28;20193;-73
2021/05/18 12:27:02;;;;;;;2.20;0.50;;;;;;;;;;5032545;28;20316;-74
2021/05/18 12:29:34;;;;;;;5.27;0.60;;;;;;;;;;5034422;28;20675;-75
2021/05/18 12:32:16;;;;;;;2.43;0.50;;;;;;;;;;5033706;28;20635;-72
2021/05/18 12:34:43;;;;;;;1.53;0.87;;;;;;;;;;5033786;28;20228;-74
2021/05/18 12:37:11;;;;;;;2.23;0.50;;;;;;;;;;5014451;28;20205;-74
2021/05/18 12:39:42;;;;;;;1.67;0.60;;;;;;;;;;5024800;28;20201;-74
2021/05/18 12:42:15;;;;;;;4.93;0.60;;;;;;;;;;5019587;28;20224;-73
2021/05/18 12:44:50;;;;;;;2.73;0.47;;;;;;;;;;5034076;28;20284;-73
2021/05/18 12:47:31;;;;;;;3.30;0.50;;;;;;;;;;5019113;28;20209;-74
2021/05/18 12:49:58;;;;;;;2.40;0.50;;;;;;;;;;5033195;28;20203;-71
2021/05/18 12:52:33;;;;;;;1.53;0.60;;;;;;;;;;5019022;28;20185;-73
2021/05/18 12:55:00;;;;;;;5.10;0.70;;;;;;;;;;5033837;28;20193;-72
2021/05/18 12:57:28;;;;;;;1.10;0.37;;;;;;;;;;5033381;28;20262;-70
2021/05/18 13:00:04;;;;;;;1.83;0.37;;;;;;;;;;5033519;28;20673;-73
2021/05/18 13:02:41;;;;;;;3.10;0.40;;;;;;;;;;5030546;28;20630;-72
2021/05/18 13:05:19;;;;;;;3.23;0.50;;;;;;;;;;5016501;28;20279;-74
2021/05/18 13:08:04;;;;;;;2.97;0.60;;;;;;;;;;5027095;28;20220;-75
2021/05/18 13:13:13;;;;;;;1.87;0.47;;;;;;;;;;5032826;28;20288;-72
2021/05/18 13:15:40;;;;;;;1.97;0.60;;;;;;;;;;5033323;28;20209;-74
2021/05/18 13:18:09;;;;;;;4.07;0.80;;;;;;;;;;5032419;28;20196;-75
2021/05/18 13:20:53;;;;;;;1.60;0.60;;;;;;;;;;5024548;28;20238;-75
2021/05/18 13:23:56;;;;;;;1.40;0.50;;;;;;;;;;5012554;28;20227;-73
2021/05/18 13:26:28;;;;;;;2.33;0.60;;;;;;;;;;5024434;28;20619;-75
2021/05/18 13:28:58;;;;;;;3.17;1.03;;;;;;;;;;5019143;28;20197;-73
2021/05/18 13:31:26;;;;;;;1.60;0.40;;;;;;;;;;5033210;28;20193;-74
2021/05/18 13:33:53;;;;;;;1.67;0.60;;;;;;;;;;5030008;28;20575;-72
2021/05/18 13:36:40;;;;;;;0.60;0.60;;;;;;;;;;5033092;28;20223;-73
2021/05/18 13:39:10;;;;;;;1.50;0.50;;;;;;;;;;5019493;28;20189;-72
2021/05/18 13:41:37;;;;;;;3.00;0.57;;;;;;;;;;5033582;28;20205;-73
2021/05/18 13:44:05;;;;;;;2.73;0.50;;;;;;;;;;5027510;28;20197;-74
2021/05/18 13:46:32;;;;;;;4.40;0.70;;;;;;;;;;5012839;28;20309;-76
2021/05/18 13:49:10;;;;;;;3.00;0.70;;;;;;;;;;5017274;28;20229;-75
2021/05/18 13:51:36;;;;;;;1.93;0.53;;;;;;;;;;5033068;28;20189;-75
2021/05/18 13:54:06;;;;;;;1.63;0.57;;;;;;;;;;5032035;28;20231;-75
2021/05/18 13:56:33;;;;;;;2.57;0.60;;;;;;;;;;5034712;28;20201;-74
2021/05/18 13:59:00;;;;;;;3.03;0.50;;;;;;;;;;5019231;28;20194;-72
2021/05/18 14:01:27;;;;;;;1.80;0.60;;;;;;;;;;5034253;28;20279;-76
2021/05/18 14:03:55;;;;;;;2.07;0.57;;;;;;;;;;5033618;28;20197;-73
2021/05/18 14:06:23;;;;;;;2.00;0.60;;;;;;;;;;5033568;28;20222;-69
2021/05/18 14:08:50;;;;;;;1.93;0.43;;;;;;;;;;5029547;28;20625;-74
2021/05/18 14:11:20;;;;;;;2.00;0.50;;;;;;;;;;5030629;28;20259;-76
2021/05/18 14:13:48;;;;;;;0.90;0.40;;;;;;;;;;5011645;28;20197;-76
2021/05/18 14:16:19;;;;;;;1.07;0.70;;;;;;;;;;5026515;28;20228;-74
2021/05/18 14:18:47;;;;;;;3.33;2.20;;;;;;;;;;5031789;28;20243;-72
2021/05/18 14:21:14;;;;;;;8.63;5.50;;;;;;;;;;5031770;28;20197;-72
2021/05/18 14:26:08;;;;;;;3.27;0.70;;;;;;;;;;5031985;28;20280;-69
2021/05/18 14:28:35;;;;;;;2.63;0.90;;;;;;;;;;5030889;28;20233;-71
2021/05/18 14:31:06;;;;;;;2.63;0.90;;;;;;;;;;5027305;28;20217;-72
2021/05/18 14:33:34;;;;;;;3.30;0.60;;;;;;;;;;5025604;28;20272;-73
2021/05/18 14:36:02;;;;;;;4.53;0.70;;;;;;;;;;5028467;28;20213;-69
2021/05/18 14:38:29;;;;;;;1.20;0.60;;;;;;;;;;5027351;28;20636;-71
2021/05/18 14:56:40;;;;;;;1.87;0.70;;;;;;;;;;5015024;28;20205;-70
2021/05/18 14:59:07;;;;;;;2.73;0.90;;;;;;;;;;5020500;28;20283;-73
2021/05/18 15:01:34;;;;;;;3.33;0.73;;;;;;;;;;5031753;28;20247;-69
2021/05/18 15:04:01;;;;;;;0.97;0.57;;;;;;;;;;5018313;28;20212;-67
2021/05/18 15:06:30;;;;;;;3.83;1.00;;;;;;;;;;5020664;28;20193;-72
2021/05/18 15:08:57;;;;;;;1.57;0.80;;;;;;;;;;5029694;28;20794;-70
2021/05/18 15:11:24;;;;;;;66.97;59.27;;;;;;;;;;5021749;28;20706;-74
2021/05/18 15:13:51;;;;;;;23.00;20.60;;;;;;;;;;5025818;28;20201;-69
2021/05/18 15:16:18;;;;;;;3.73;3.33;;;;;;;;;;5028145;28;20211;-68
2021/05/18 15:18:47;;;;;;;682.70;572.33;;;;;;;;;;5028238;28;20193;-69
2021/05/18 15:21:14;;;;;;;14.93;9.60;;;;;;;;;;5029942;28;20193;-68
2021/05/18 15:23:44;;;;;;;8.43;7.47;;;;;;;;;;5028487;28;20197;-75
2021/05/18 15:26:11;;;;;;;3.07;2.43;;;;;;;;;;5029288;28;20219;-71
2021/05/18 15:28:41;;;;;;;4.67;3.30;;;;;;;;;;5029630;28;20687;-66
2021/05/18 15:31:09;;;;;;;4.10;2.13;;;;;;;;;;5029864;28;20194;-69
2021/05/18 15:33:36;;;;;;;16.23;8.37;;;;;;;;;;5029165;28;20636;-69
2021/05/18 15:36:04;;;;;;;42.07;18.77;;;;;;;;;;5030107;28;20263;-68
2021/05/18 15:38:37;;;;;;;30.93;18.60;;;;;;;;;;5017010;28;20189;-71
2021/05/18 15:41:08;;;;;;;8.13;4.60;;;;;;;;;;5029616;28;20220;-67
2021/05/18 15:43:35;;;;;;;6.30;2.40;;;;;;;;;;5027910;28;20289;-68
2021/05/18 15:46:05;;;;;;;6.87;3.60;;;;;;;;;;5025667;28;20200;-68
2021/05/18 15:48:33;;;;;;;4.50;2.80;;;;;;;;;;5030512;28;20225;-68
2021/05/18 15:51:00;;;;;;;33.47;15.77;;;;;;;;;;5024026;28;20245;-68
2021/05/18 15:53:27;;;;;;;16.43;6.23;;;;;;;;;;5022570;28;20320;-70
2021/05/18 15:55:54;;;;;;;44.97;24.03;;;;;;;;;;5028204;28;20197;-69
2021/05/18 15:58:21;;;;;;;2.90;2.27;;;;;;;;;;5029647;28;20205;-68
2021/05/18 16:00:48;;;;;;;185.57;165.17;;;;;;;;;;5028638;28;20189;-66
2021/05/18 16:03:15;;;;;;;35.33;27.93;;;;;;;;;;5030166;28;20197;-70
2021/05/18 16:05:42;;;;;;;6.77;3.87;;;;;;;;;;5027970;28;20247;-71
2021/05/18 16:10:55;;;;;;;3.47;1.20;;;;;;;;;;5025828;28;20243;-70
2021/05/18 16:13:22;;;;;;;1.47;1.10;;;;;;;;;;5028148;28;20195;-69
2021/05/18 16:15:49;;;;;;;4.03;1.83;;;;;;;;;;5028237;28;20201;-70
2021/05/18 16:18:16;;;;;;;4.83;2.40;;;;;;;;;;5027025;28;20217;-69
2021/05/18 16:20:44;;;;;;;3.23;1.07;;;;;;;;;;5029323;28;20300;-71
2021/05/18 16:23:14;;;;;;;5.03;1.00;;;;;;;;;;5029124;28;20705;-69
2021/05/18 16:25:41;;;;;;;2.23;1.27;;;;;;;;;;5031847;28;20189;-68
2021/05/18 16:28:08;;;;;;;2.43;1.00;;;;;;;;;;5029738;28;20298;-67
2021/05/18 16:30:34;;;;;;;1.70;0.70;;;;;;;;;;5029206;28;20198;-70
2021/05/18 16:33:02;;;;;;;6.50;1.03;;;;;;;;;;5027464;28;20193;-68
2021/05/18 16:35:29;;;;;;;56.13;48.00;;;;;;;;;;5029585;28;20205;-68
2021/05/18 16:37:56;;;;;;;61.33;42.83;;;;;;;;;;5029788;28;20204;-68
2021/05/18 16:40:26;;;;;;;5.47;2.03;;;;;;;;;;5026383;28;20194;-69
2021/05/18 16:42:53;;;;;;;4.73;2.33;;;;;;;;;;5029301;28;20193;-70
2021/05/18 16:45:22;;;;;;;3.20;1.57;;;;;;;;;;5026731;28;20204;-71
2021/05/18 16:47:49;;;;;;;4.40;0.97;;;;;;;;;;5028945;28;20247;-69
2021/05/18 16:50:16;;;;;;;4.77;1.50;;;;;;;;;;5028287;28;20205;-71
2021/05/18 16:52:43;;;;;;;3.90;1.40;;;;;;;;;;5028343;28;20229;-68
2021/05/18 16:55:10;;;;;;;3.13;1.57;;;;;;;;;;5028580;28;20244;-72
2021/05/18 16:57:36;;;;;;;3.33;1.27;;;;;;;;;;5028826;28;20185;-68
2021/05/18 17:00:05;;;;;;;2.93;1.30;;;;;;;;;;5025511;28;20210;-72
2021/05/18 17:02:33;;;;;;;1.53;1.13;;;;;;;;;;5028151;28;20189;-75
2021/05/18 17:05:00;;;;;;;1.50;1.20;;;;;;;;;;5027630;28;20659;-71
2021/05/18 17:07:27;;;;;;;4.33;1.70;;;;;;;;;;5028334;28;20236;-72
2021/05/18 17:09:53;;;;;;;3.23;1.30;;;;;;;;;;5020952;28;20197;-73
2021/05/18 17:12:21;;;;;;;3.40;1.20;;;;;;;;;;5033115;28;20602;-66
2021/05/18 17:14:48;;;;;;;4.63;1.40;;;;;;;;;;5030130;28;20275;-69
2021/05/18 17:17:16;;;;;;;2.53;1.20;;;;;;;;;;5024090;28;20201;-69
2021/05/18 17:19:43;;;;;;;2.00;1.17;;;;;;;;;;5021586;28;20287;-69
2021/05/18 17:22:11;;;;;;;6.17;1.30;;;;;;;;;;5029762;28;20205;-71
2021/05/18 17:24:39;;;;;;;5.93;1.70;;;;;;;;;;5031099;28;20447;-73
2021/05/18 17:27:06;;;;;;;3.60;1.20;;;;;;;;;;5031463;28;20287;-74
2021/05/18 17:29:33;;;;;;;2.10;1.30;;;;;;;;;;5031598;28;20193;-70
2021/05/18 17:32:00;;;;;;;4.60;1.23;;;;;;;;;;5031468;28;20198;-71
2021/05/18 17:34:27;;;;;;;4.07;1.40;;;;;;;;;;5030530;28;20201;-71
2021/05/18 17:36:54;;;;;;;2.20;1.30;;;;;;;;;;5031992;28;20457;-70
2021/05/18 17:39:24;;;;;;;3.50;1.00;;;;;;;;;;5031171;28;20252;-70
2021/05/18 17:41:50;;;;;;;56.30;47.80;;;;;;;;;;5032268;28;20288;-69
2021/05/18 17:44:17;;;;;;;12.73;7.93;;;;;;;;;;5031704;28;20539;-70
2021/05/18 17:46:44;;;;;;;1.37;1.03;;;;;;;;;;5031121;28;21031;-69
2021/05/18 17:49:15;;;;;;;4.17;1.50;;;;;;;;;;5031798;28;20487;-68
2021/05/18 17:51:42;;;;;;;7.13;1.23;;;;;;;;;;5032477;28;20885;-68
2021/05/18 17:54:09;;;;;;;2.33;1.23;;;;;;;;;;5031604;28;20470;-71
2021/05/18 17:56:35;;;;;;;2.53;0.93;;;;;;;;;;5026653;28;20539;-69
2021/05/18 17:59:02;;;;;;;3.43;1.70;;;;;;;;;;5028048;28;20440;-67
2021/05/18 18:01:29;;;;;;;4.47;1.37;;;;;;;;;;5031062;28;20443;-72
2021/05/18 18:03:56;;;;;;;5.83;1.60;;;;;;;;;;5032892;28;20443;-70
2021/05/18 18:06:23;;;;;;;3.37;1.50;;;;;;;;;;5014993;28;20452;-69
2021/05/18 18:08:49;;;;;;;5.83;1.40;;;;;;;;;;5013646;28;20476;-69
2021/05/18 18:11:16;;;;;;;4.73;1.73;;;;;;;;;;5026652;28;20204;-68
2021/05/18 18:13:43;;;;;;;70.20;45.67;;;;;;;;;;5030696;28;20455;-71
2021/05/18 18:16:10;;;;;;;19.43;15.23;;;;;;;;;;5031143;28;20436;-68
2021/05/18 18:18:38;;;;;;;4.17;1.90;;;;;;;;;;5028303;28;20439;-71
2021/05/18 18:21:05;;;;;;;3.63;1.77;;;;;;;;;;5028576;28;20224;-71
2021/05/18 18:23:33;;;;;;;6.70;1.67;;;;;;;;;;5027730;28;20436;-68
2021/05/18 18:26:00;;;;;;;5.47;1.77;;;;;;;;;;5031053;28;20432;-69
2021/05/18 18:28:27;;;;;;;5.50;1.97;;;;;;;;;;5030725;28;20463;-71
2021/05/18 18:30:53;;;;;;;5.00;2.43;;;;;;;;;;5030403;28;20531;-70
2021/05/18 18:33:21;;;;;;;4.27;2.30;;;;;;;;;;5025246;28;20436;-66
2021/05/18 18:35:51;;;;;;;5.80;2.30;;;;;;;;;;5024186;28;20536;-70
2021/05/18 18:38:18;;;;;;;5.20;2.40;;;;;;;;;;5030623;28;20458;-73
2021/05/18 18:40:45;;;;;;;5.37;2.60;;;;;;;;;;5029173;28;20447;-67
2021/05/18 18:43:12;;;;;;;6.77;2.67;;;;;;;;;;5030246;28;20848;-69
2021/05/18 18:45:40;;;;;;;4.00;2.47;;;;;;;;;;5028460;28;20445;-67
2021/05/18 18:48:12;;;;;;;14.37;8.60;;;;;;;;;;5029675;28;20480;-68
2021/05/18 18:50:41;;;;;;;4.57;2.10;;;;;;;;;;5029040;28;20523;-71
2021/05/18 18:55:39;;;;;;;5.77;2.90;;;;;;;;;;5030182;28;21025;-69
2021/05/18 18:58:06;;;;;;;8.33;3.23;;;;;;;;;;5027896;28;20443;-69
2021/05/18 19:00:33;;;;;;;12.33;8.33;;;;;;;;;;5028756;28;20838;-71
2021/05/18 19:03:07;;;;;;;32.43;23.90;;;;;;;;;;5029377;28;20449;-70
2021/05/18 19:13:24;;;;;;;4.77;3.20;;;;;;;;;;5017451;28;21033;-71
2021/05/18 19:15:51;;;;;;;4.33;2.50;;;;;;;;;;5031114;28;20444;-67
2021/05/18 19:18:18;;;;;;;5.07;2.70;;;;;;;;;;5031200;28;20448;-69
2021/05/18 19:20:45;;;;;;;3.53;1.90;;;;;;;;;;5022559;28;20923;-69
2021/05/18 19:23:13;;;;;;;4.53;2.00;;;;;;;;;;5025904;28;20488;-69
2021/05/18 19:25:40;;;;;;;6.70;2.10;;;;;;;;;;5027598;28;20539;-69
2021/05/18 19:28:13;;;;;;;5.03;2.00;;;;;;;;;;5028988;28;20857;-71
2021/05/18 19:30:42;;;;;;;5.83;2.17;;;;;;;;;;5028380;28;20475;-69
2021/05/18 19:33:11;;;;;;;4.20;2.50;;;;;;;;;;5025018;28;20593;-68
2021/05/18 19:51:32;;;;;;;5.40;1.47;;;;;;;;;;5023530;28;20475;-68
2021/05/18 19:53:59;;;;;;;2.73;1.50;;;;;;;;;;5029002;28;21084;-70
2021/05/18 19:56:37;;;;;;;4.73;1.67;;;;;;;;;;5029034;28;21349;-70
2021/05/18 20:10:21;;;;;;;2.40;1.30;;;;;;;;;;5026434;28;20932;-64
2021/05/18 20:20:54;;;;;;;3.73;0.90;;;;;;;;;;5027906;28;20467;-64
2021/05/18 20:23:21;;;;;;;2.70;1.30;;;;;;;;;;5027436;28;20450;-65
2021/05/18 20:25:48;;;;;;;2.20;1.30;;;;;;;;;;5028348;28;20444;-64
2021/05/18 20:28:16;;;;;;;2.93;1.40;;;;;;;;;;5027195;28;21070;-65
2021/05/18 20:30:45;;;;;;;7.27;1.60;;;;;;;;;;5029521;28;20530;-64
2021/05/18 20:33:16;;;;;;;4.60;1.83;;;;;;;;;;5026356;28;20459;-65
2021/05/18 20:35:51;;;;;;;7.57;2.40;;;;;;;;;;5026049;28;21177;-64
2021/05/18 20:38:37;;;;;;;5.60;2.00;;;;;;;;;;5012556;28;20459;-64
2021/05/18 20:41:03;;;;;;;4.77;2.03;;;;;;;;;;5012870;28;20954;-66
2021/05/18 20:43:30;;;;;;;2.73;1.80;;;;;;;;;;5027872;28;20467;-62
2021/05/18 20:45:57;;;;;;;5.00;1.47;;;;;;;;;;5029510;28;20451;-64
2021/05/18 20:48:24;;;;;;;7.40;1.40;;;;;;;;;;5033399;28;20467;-65
2021/05/18 20:50:51;;;;;;;3.03;1.47;;;;;;;;;;5022819;28;20901;-63